Time;durP1;ratioP1;P1;durP2;ratioP2;P2;SDS_P1;SDS_P2;PMS_P1;PMS_P2;Temp;Humidity;BMP_temperature;BMP_pressure;BME280_temperature;BME280_humidity;BME280_pressure;Samples;Min_cycle;Max_cycle;Signal;HPM_P1;HPM_P2
2021/04/10 00:01:26;;;;;;;20.60;5.67;;;8.50;83.00;;;;;;5054964;28;20109;-72
2021/04/10 00:03:52;;;;;;;15.60;4.60;;;8.50;82.60;;;;;;5072927;28;20016;-71
2021/04/10 00:06:18;;;;;;;13.60;4.63;;;8.50;82.90;;;;;;5054888;28;20031;-72
2021/04/10 00:08:43;;;;;;;15.53;3.90;;;8.50;82.50;;;;;;5037898;28;20074;-72
2021/04/10 00:11:09;;;;;;;16.87;4.13;;;8.40;82.70;;;;;;5054592;28;20040;-72
2021/04/10 00:13:34;;;;;;;18.97;3.90;;;8.40;82.80;;;;;;5057502;28;20417;-71
2021/04/10 00:16:00;;;;;;;11.57;3.67;;;8.40;82.90;;;;;;5025054;28;20024;-72
2021/04/10 00:18:26;;;;;;;14.77;3.40;;;8.40;82.90;;;;;;5041370;28;20048;-72
2021/04/10 00:20:51;;;;;;;13.47;3.27;;;8.30;82.80;;;;;;5058310;28;20087;-71
2021/04/10 00:23:17;;;;;;;9.73;4.00;;;8.30;83.20;;;;;;5057956;28;20484;-71
2021/04/10 00:25:43;;;;;;;15.20;3.80;;;8.30;83.10;;;;;;5076106;28;20032;-72
2021/04/10 00:28:09;;;;;;;13.13;3.77;;;8.30;83.40;;;;;;5076065;28;20075;-71
2021/04/10 00:30:34;;;;;;;10.17;3.00;;;8.20;83.20;;;;;;5076145;28;20078;-72
2021/04/10 00:33:00;;;;;;;14.07;4.33;;;8.20;83.10;;;;;;5075922;28;20032;-78
2021/04/10 00:35:28;;;;;;;13.10;3.87;;;8.20;83.60;;;;;;5041440;28;20036;-78
2021/04/10 00:37:54;;;;;;;13.93;3.87;;;8.20;83.50;;;;;;5041762;28;20090;-71
2021/04/10 00:40:20;;;;;;;17.33;3.93;;;8.10;83.50;;;;;;5075598;28;20075;-72
2021/04/10 00:42:46;;;;;;;11.47;3.60;;;8.20;83.30;;;;;;5041145;28;20556;-71
2021/04/10 00:45:12;;;;;;;18.00;4.27;;;8.10;83.20;;;;;;5041126;28;20496;-71
2021/04/10 00:47:37;;;;;;;11.03;2.83;;;8.10;83.40;;;;;;5057928;28;20027;-72
2021/04/10 00:50:05;;;;;;;12.37;3.47;;;8.10;83.50;;;;;;5041202;28;20021;-72
2021/04/10 00:52:32;;;;;;;8.57;2.73;;;8.10;83.40;;;;;;5075536;28;20032;-72
2021/04/10 00:54:59;;;;;;;11.93;3.30;;;8.10;83.40;;;;;;5075685;28;20035;-71
2021/04/10 00:57:25;;;;;;;10.70;2.60;;;8.10;83.40;;;;;;5075465;28;20577;-71
2021/04/10 00:59:51;;;;;;;16.63;2.90;;;8.00;83.50;;;;;;5057672;28;20036;-72
2021/04/10 01:02:17;;;;;;;11.80;3.33;;;8.00;83.40;;;;;;5075479;28;20082;-72
2021/04/10 01:04:42;;;;;;;10.40;4.10;;;8.10;83.60;;;;;;5075786;28;20024;-71
2021/04/10 01:07:08;;;;;;;12.33;2.97;;;7.90;83.40;;;;;;5075501;28;20156;-71
2021/04/10 01:09:35;;;;;;;11.13;3.10;;;8.00;83.60;;;;;;5057437;28;20036;-72
2021/04/10 01:12:17;;;;;;;12.40;2.53;;;7.90;83.50;;;;;;5075269;28;20032;-72
2021/04/10 01:15:11;;;;;;;13.57;2.63;;;7.90;83.50;;;;;;5075157;28;20024;-71
2021/04/10 01:17:44;;;;;;;10.45;3.05;;;7.90;83.50;;;;;;5075512;28;20460;-71
2021/04/10 01:20:32;;;;;;;12.30;3.23;;;7.90;83.60;;;;;;5057033;28;20124;-72
2021/04/10 01:23:24;;;;;;;12.67;3.30;;;7.90;83.70;;;;;;5075166;28;20032;-71
2021/04/10 01:25:58;;;;;;;13.57;3.00;;;7.90;83.60;;;;;;5074759;28;20471;-71
2021/04/10 01:28:46;;;;;;;;;;;7.80;83.40;;;;;;5075279;28;20483;-71
2021/04/10 01:31:14;;;;;;;13.77;3.10;;;7.80;84.00;;;;;;5074867;28;20000;-71
2021/04/10 01:33:46;;;;;;;14.47;3.73;;;7.80;83.70;;;;;;5074939;28;20111;-71
2021/04/10 01:36:14;;;;;;;12.93;3.03;;;7.80;83.70;;;;;;5074941;28;20082;-71
2021/04/10 01:38:44;;;;;;;8.00;2.53;;;7.80;84.10;;;;;;5074955;28;20146;-72
2021/04/10 01:41:11;;;;;;;11.53;3.03;;;7.80;84.10;;;;;;5074377;28;20074;-72
2021/04/10 01:43:37;;;;;;;13.67;2.70;;;7.80;84.80;;;;;;5023576;28;20119;-71
2021/04/10 01:46:03;;;;;;;12.87;3.37;;;7.70;84.20;;;;;;5040456;28;20032;-71
2021/04/10 01:53:34;;;;;;;13.50;3.63;;;7.90;84.50;;;;;;5069313;28;20086;-82
2021/04/10 01:56:02;;;;;;;10.83;3.40;;;7.70;84.40;;;;;;5056338;28;20036;-82
2021/04/10 01:58:29;;;;;;;11.63;3.33;;;7.70;84.80;;;;;;5074257;28;20025;-82
2021/04/10 02:00:56;;;;;;;9.93;2.60;;;7.70;84.10;;;;;;5039833;28;20024;-82
2021/04/10 02:03:22;;;;;;;8.57;3.00;;;7.70;84.10;;;;;;5039857;28;20041;-83
2021/04/10 02:05:49;;;;;;;11.17;3.07;;;7.70;84.10;;;;;;5039794;28;20028;-83
2021/04/10 02:08:18;;;;;;;15.37;3.47;;;7.70;84.30;;;;;;5056767;28;20036;-83
2021/04/10 02:10:45;;;;;;;10.53;3.37;;;7.70;84.30;;;;;;5056178;28;20031;-83
2021/04/10 02:13:13;;;;;;;11.77;3.50;;;7.70;84.30;;;;;;5055904;28;20058;-83
2021/04/10 02:15:39;;;;;;;13.37;2.97;;;7.60;84.20;;;;;;5056040;28;20044;-83
2021/04/10 02:18:04;;;;;;;14.87;3.50;;;7.60;84.30;;;;;;5039480;28;20065;-83
2021/04/10 02:20:30;;;;;;;13.53;3.33;;;7.60;84.20;;;;;;5056466;28;20444;-83
2021/04/10 02:22:57;;;;;;;9.57;2.80;;;7.60;84.20;;;;;;5055853;28;20400;-83
2021/04/10 02:25:27;;;;;;;9.33;2.90;;;7.60;84.30;;;;;;5039395;28;20064;-83
2021/04/10 02:27:54;;;;;;;13.20;3.63;;;7.60;84.40;;;;;;5074196;28;20024;-83
2021/04/10 02:30:21;;;;;;;13.90;3.90;;;7.70;84.50;;;;;;5055924;28;20027;-83
2021/04/10 02:32:56;;;;;;;11.37;3.50;;;7.60;84.60;;;;;;5054927;28;20448;-83
2021/04/10 02:35:26;;;;;;;13.07;3.47;;;7.60;84.30;;;;;;5055872;28;20477;-84
2021/04/10 02:37:53;;;;;;;12.63;3.70;;;7.60;84.30;;;;;;5055886;28;20475;-84
2021/04/10 02:40:21;;;;;;;9.80;3.17;;;7.60;84.30;;;;;;5056267;28;20102;-83
2021/04/10 02:42:48;;;;;;;17.63;4.70;;;7.50;84.30;;;;;;5073585;28;20059;-83
2021/04/10 02:45:20;;;;;;;12.27;3.53;;;7.50;84.40;;;;;;5055693;28;20452;-84
2021/04/10 02:47:48;;;;;;;16.13;4.07;;;7.50;84.50;;;;;;5055616;28;20025;-83
2021/04/10 02:50:17;;;;;;;13.97;4.17;;;7.50;85.00;;;;;;5055884;28;20135;-83
2021/04/10 02:52:46;;;;;;;13.77;4.23;;;7.50;84.90;;;;;;5055365;28;20140;-83
2021/04/10 02:55:16;;;;;;;11.23;3.73;;;7.40;85.00;;;;;;5054830;28;20024;-83
2021/04/10 02:57:43;;;;;;;17.43;3.87;;;7.40;84.90;;;;;;5055535;28;20024;-83
2021/04/10 03:00:10;;;;;;;16.90;4.30;;;7.40;85.20;;;;;;5073087;28;20045;-84
2021/04/10 03:02:37;;;;;;;19.10;4.97;;;7.30;85.40;;;;;;5038650;28;20036;-83
2021/04/10 03:05:04;;;;;;;14.90;4.50;;;7.30;85.60;;;;;;5072902;28;20024;-82
2021/04/10 03:07:30;;;;;;;15.27;4.77;;;7.20;85.80;;;;;;5038866;28;20024;-83
2021/04/10 03:09:57;;;;;;;18.50;5.07;;;7.20;86.20;;;;;;5038685;28;20031;-83
2021/04/10 03:12:26;;;;;;;14.73;4.53;;;7.10;86.60;;;;;;5055462;28;20419;-84
2021/04/10 03:14:52;;;;;;;13.10;4.53;;;7.10;86.50;;;;;;5055342;28;20029;-83
2021/04/10 03:17:21;;;;;;;14.67;4.33;;;7.10;86.60;;;;;;5072848;28;20473;-83
2021/04/10 03:19:47;;;;;;;14.83;4.53;;;7.10;86.80;;;;;;5073060;28;20484;-83
2021/04/10 03:22:15;;;;;;;12.53;3.87;;;7.00;86.60;;;;;;5054902;28;20040;-83
2021/04/10 03:24:41;;;;;;;13.83;4.17;;;7.00;86.80;;;;;;5055170;28;20032;-83
2021/04/10 03:27:07;;;;;;;13.50;5.10;;;7.00;87.20;;;;;;5038477;28;20024;-83
2021/04/10 03:29:34;;;;;;;13.10;4.70;;;7.00;87.30;;;;;;5088597;28;20043;-83
2021/04/10 03:32:01;;;;;;;17.00;5.27;;;7.00;87.20;;;;;;5054780;28;20021;-83
2021/04/10 03:34:28;;;;;;;14.20;4.97;;;7.00;87.40;;;;;;5038707;28;20480;-83
2021/04/10 03:36:54;;;;;;;14.97;4.70;;;7.00;87.20;;;;;;5088680;28;20036;-83
2021/04/10 03:39:20;;;;;;;15.03;4.77;;;7.00;87.30;;;;;;5055053;28;20119;-83
2021/04/10 03:41:46;;;;;;;19.27;4.87;;;7.00;87.50;;;;;;5072650;28;20458;-83
2021/04/10 03:44:12;;;;;;;15.53;4.87;;;7.00;88.00;;;;;;5038400;28;20443;-84
2021/04/10 03:46:37;;;;;;;12.33;4.30;;;7.00;87.50;;;;;;5073089;28;20037;-83
2021/04/10 03:49:07;;;;;;;17.20;4.70;;;7.00;87.50;;;;;;5042076;28;20024;-84
2021/04/10 03:51:36;;;;;;;19.53;5.23;;;7.00;87.50;;;;;;5039568;28;20052;-83
2021/04/10 03:54:02;;;;;;;9.67;3.67;;;6.90;87.40;;;;;;5041848;28;20082;-84
2021/04/10 03:56:28;;;;;;;10.37;3.67;;;7.00;87.60;;;;;;5059162;28;20032;-83
2021/04/10 03:58:54;;;;;;;12.47;4.47;;;7.00;87.70;;;;;;5058658;28;20381;-82
2021/04/10 04:01:19;;;;;;;15.23;4.60;;;6.90;87.30;;;;;;5055923;28;20029;-82
2021/04/10 04:03:45;;;;;;;13.03;4.20;;;6.90;87.70;;;;;;5057764;28;20074;-82
2021/04/10 04:06:11;;;;;;;13.37;5.23;;;7.00;87.60;;;;;;5057024;28;20036;-82
2021/04/10 04:08:37;;;;;;;12.87;4.93;;;7.00;87.50;;;;;;5057660;28;20025;-82
2021/04/10 04:11:06;;;;;;;13.90;4.73;;;7.00;87.40;;;;;;5076489;28;20024;-83
2021/04/10 04:13:31;;;;;;;18.50;5.10;;;6.90;87.30;;;;;;5042216;28;20123;-83
2021/04/10 04:15:57;;;;;;;14.70;4.97;;;7.00;87.30;;;;;;5057478;28;20115;-82
2021/04/10 04:18:23;;;;;;;12.77;4.27;;;7.00;87.60;;;;;;5075386;28;20500;-81
2021/04/10 04:20:49;;;;;;;14.40;5.43;;;7.00;87.50;;;;;;5058527;28;20029;-82
2021/04/10 04:23:14;;;;;;;17.40;5.50;;;7.10;87.70;;;;;;5057882;28;20063;-82
2021/04/10 04:25:40;;;;;;;16.93;6.70;;;7.00;87.60;;;;;;5058207;28;20107;-82
2021/04/10 04:28:06;;;;;;;15.90;6.00;;;7.00;87.70;;;;;;5057996;28;20028;-82
2021/04/10 04:30:31;;;;;;;13.50;5.63;;;7.00;87.80;;;;;;5041490;28;20055;-82
2021/04/10 04:32:57;;;;;;;15.33;5.43;;;7.00;87.70;;;;;;5057961;28;20028;-82
2021/04/10 04:35:23;;;;;;;14.53;6.07;;;7.10;87.90;;;;;;5076060;28;20028;-82
2021/04/10 04:37:48;;;;;;;14.17;5.63;;;7.00;87.90;;;;;;5041277;28;20362;-82
2021/04/10 04:40:14;;;;;;;14.43;5.50;;;7.00;88.00;;;;;;5045661;28;20098;-82
2021/04/10 04:42:40;;;;;;;17.00;5.80;;;7.00;88.00;;;;;;5065410;28;20067;-83
2021/04/10 04:45:07;;;;;;;17.00;6.37;;;7.00;87.70;;;;;;5042147;28;20436;-83
2021/04/10 04:47:33;;;;;;;18.57;6.77;;;7.00;87.70;;;;;;5057039;28;20013;-83
2021/04/10 04:49:59;;;;;;;17.50;6.07;;;7.00;88.00;;;;;;5056765;28;20496;-83
2021/04/10 04:52:24;;;;;;;16.17;5.10;;;7.00;87.80;;;;;;5038801;28;20489;-83
2021/04/10 04:54:50;;;;;;;17.00;5.93;;;7.00;87.90;;;;;;5020231;28;20103;-83
2021/04/10 04:57:16;;;;;;;17.47;5.80;;;7.00;88.50;;;;;;5020298;28;20025;-82
2021/04/10 04:59:41;;;;;;;19.20;5.63;;;7.00;87.70;;;;;;5019999;28;20033;-82
2021/04/10 05:02:10;;;;;;;15.80;4.73;;;7.00;87.80;;;;;;5036660;28;20122;-83
2021/04/10 05:04:36;;;;;;;16.90;5.40;;;7.00;87.50;;;;;;5020851;28;20025;-84
2021/04/10 05:07:01;;;;;;;15.10;5.10;;;7.00;87.50;;;;;;5054805;28;20083;-83
2021/04/10 05:09:27;;;;;;;16.43;5.37;;;7.00;87.50;;;;;;5055082;28;20036;-84
2021/04/10 05:11:53;;;;;;;18.80;6.03;;;7.00;87.60;;;;;;5021227;28;20033;-82
2021/04/10 05:14:18;;;;;;;13.03;4.60;;;7.10;87.70;;;;;;5035562;28;20113;-82
2021/04/10 05:16:44;;;;;;;18.23;5.10;;;7.10;87.60;;;;;;5036011;28;20061;-82
2021/04/10 05:19:09;;;;;;;14.73;5.23;;;7.10;87.50;;;;;;5035388;28;20029;-82
2021/04/10 05:21:35;;;;;;;11.50;5.07;;;7.10;87.50;;;;;;5019461;28;20060;-83
2021/04/10 05:24:01;;;;;;;13.47;4.17;;;7.00;87.20;;;;;;5035869;28;20036;-82
2021/04/10 05:26:26;;;;;;;19.00;5.77;;;7.10;87.10;;;;;;5019414;28;20120;-83
2021/04/10 05:28:55;;;;;;;12.30;4.73;;;7.10;87.20;;;;;;5035707;28;20033;-83
2021/04/10 05:31:21;;;;;;;15.53;5.37;;;7.10;87.20;;;;;;5020656;28;20024;-83
2021/04/10 05:33:46;;;;;;;15.90;5.43;;;7.10;87.20;;;;;;5036624;28;20489;-84
2021/04/10 05:36:12;;;;;;;16.73;4.37;;;7.20;87.20;;;;;;5036617;28;20036;-84
2021/04/10 05:38:38;;;;;;;15.33;4.13;;;7.10;87.10;;;;;;5036634;28;20477;-83
2021/04/10 05:41:03;;;;;;;14.77;5.67;;;7.10;87.40;;;;;;5020356;28;20033;-83
2021/04/10 05:43:29;;;;;;;14.90;4.67;;;7.10;87.20;;;;;;5020318;28;20532;-83
2021/04/10 05:45:55;;;;;;;14.97;4.70;;;7.10;87.70;;;;;;5054457;28;20090;-83
2021/04/10 05:48:20;;;;;;;12.43;4.77;;;7.20;87.00;;;;;;5019904;28;20025;-82
2021/04/10 05:50:46;;;;;;;11.93;4.33;;;7.20;86.90;;;;;;5020067;28;20063;-83
2021/04/10 05:53:11;;;;;;;13.77;4.13;;;7.20;86.70;;;;;;5037368;28;20053;-83
2021/04/10 05:55:37;;;;;;;15.57;4.53;;;7.20;86.50;;;;;;5036684;28;20036;-83
2021/04/10 05:58:03;;;;;;;13.93;4.13;;;7.20;86.20;;;;;;5054252;28;20033;-83
2021/04/10 06:00:29;;;;;;;12.20;4.20;;;7.20;86.10;;;;;;5054228;28;20489;-83
2021/04/10 06:02:55;;;;;;;12.23;3.83;;;7.30;86.10;;;;;;5019728;28;20560;-83
2021/04/10 06:05:22;;;;;;;14.00;3.77;;;7.30;85.90;;;;;;5036513;28;20067;-83
2021/04/10 06:07:48;;;;;;;10.30;3.20;;;7.30;85.80;;;;;;5036293;28;20036;-83
2021/04/10 06:10:20;;;;;;;11.90;3.77;;;7.40;85.60;;;;;;5019202;28;20025;-83
2021/04/10 06:12:47;;;;;;;13.90;3.93;;;7.40;85.30;;;;;;5036005;28;20021;-83
2021/04/10 06:15:18;;;;;;;14.33;3.87;;;7.40;85.20;;;;;;5053791;28;20108;-82
2021/04/10 06:17:45;;;;;;;14.60;3.80;;;7.40;84.70;;;;;;5020055;28;20053;-82
2021/04/10 06:20:12;;;;;;;12.37;3.00;;;7.50;84.50;;;;;;5054059;28;20029;-83
2021/04/10 06:22:38;;;;;;;14.97;3.80;;;7.50;84.40;;;;;;5052121;28;20505;-84
2021/04/10 06:25:05;;;;;;;15.33;3.00;;;7.50;84.40;;;;;;5035562;28;20036;-83
2021/04/10 06:27:31;;;;;;;15.80;3.47;;;7.60;84.20;;;;;;5035763;28;20381;-83
2021/04/10 06:29:57;;;;;;;15.57;3.20;;;7.60;84.20;;;;;;5019202;28;20025;-83
2021/04/10 06:32:22;;;;;;;15.67;3.77;;;7.60;84.10;;;;;;5035955;28;20116;-82
2021/04/10 06:34:48;;;;;;;16.50;4.57;;;7.70;84.20;;;;;;5035641;28;20037;-82
2021/04/10 06:37:13;;;;;;;15.83;5.00;;;7.70;83.80;;;;;;5019156;28;20031;-83
2021/04/10 06:39:39;;;;;;;13.93;4.13;;;7.80;83.60;;;;;;5019081;28;20481;-82
2021/04/10 06:42:05;;;;;;;15.90;4.37;;;7.80;83.30;;;;;;5040756;28;20036;-83
2021/04/10 06:44:32;;;;;;;15.10;4.27;;;7.90;83.20;;;;;;5073105;28;20021;-83
2021/04/10 06:47:00;;;;;;;11.93;4.27;;;7.80;83.10;;;;;;5035030;28;20033;-83
2021/04/10 06:49:28;;;;;;;10.57;3.87;;;7.90;82.90;;;;;;5036584;28;20036;-84
2021/04/10 06:51:56;;;;;;;15.27;4.70;;;7.90;82.80;;;;;;5048640;28;20530;-82
2021/04/10 06:54:26;;;;;;;10.97;3.83;;;7.90;82.40;;;;;;5053781;28;20564;-82
2021/04/10 06:56:59;;;;;;;14.77;4.30;;;8.00;82.30;;;;;;5063704;28;20016;-82
2021/04/10 06:59:48;;;;;;;11.48;3.22;;;8.00;82.20;;;;;;5075748;28;20422;-82
2021/04/10 07:02:15;;;;;;;14.47;3.83;;;8.10;82.10;;;;;;5093335;28;20040;-82
2021/04/10 07:04:41;;;;;;;13.73;4.27;;;8.20;82.10;;;;;;5058756;28;20085;-82
2021/04/10 07:07:07;;;;;;;10.70;3.03;;;8.20;81.70;;;;;;5060619;28;20496;-83
2021/04/10 07:09:37;;;;;;;11.97;3.03;;;8.30;81.90;;;;;;5055574;28;20032;-82
2021/04/10 07:12:07;;;;;;;9.23;3.30;;;8.30;81.40;;;;;;5066042;28;20095;-82
2021/04/10 07:14:33;;;;;;;13.60;2.77;;;8.40;80.70;;;;;;5054012;28;20469;-82
2021/04/10 07:16:59;;;;;;;8.33;2.30;;;8.30;80.40;;;;;;5019510;28;20528;-82
2021/04/10 07:19:26;;;;;;;7.33;2.33;;;8.40;79.90;;;;;;5054235;28;20021;-82
2021/04/10 07:22:15;;;;;;;10.43;2.93;;;8.50;80.10;;;;;;5049274;28;20060;-82
2021/04/10 07:24:59;;;;;;;10.50;2.63;;;8.60;80.00;;;;;;5071838;28;20029;-82
2021/04/10 07:27:26;;;;;;;10.63;2.23;;;8.60;80.20;;;;;;5053995;28;20020;-82
2021/04/10 07:29:53;;;;;;;5.97;2.33;;;8.60;80.10;;;;;;5035018;28;20432;-83
2021/04/10 07:32:32;;;;;;;10.33;2.40;;;8.60;79.90;;;;;;5051872;28;20056;-82
2021/04/10 07:35:09;;;;;;;13.07;2.90;;;8.70;79.80;;;;;;5053014;28;20055;-83
2021/04/10 07:37:42;;;;;;;10.20;2.13;;;8.80;79.30;;;;;;5035135;28;20092;-83
2021/04/10 07:40:40;;;;;;;7.77;2.53;;;8.80;79.00;;;;;;5051566;28;20032;-83
2021/04/10 07:43:06;;;;;;;8.33;2.40;;;8.90;79.00;;;;;;5027763;28;20474;-83
2021/04/10 07:45:34;;;;;;;10.20;2.40;;;8.90;78.70;;;;;;5071415;28;20119;-84
2021/04/10 07:48:10;;;;;;;7.03;2.00;;;8.90;78.40;;;;;;5072841;28;20033;-83
2021/04/10 07:50:37;;;;;;;12.97;3.27;;;9.10;78.20;;;;;;5054867;28;20063;-83
2021/04/10 07:53:24;;;;;;;10.20;3.57;;;9.10;77.90;;;;;;5038745;28;20052;-83
2021/04/10 07:55:52;;;;;;;9.33;2.03;;;9.30;78.00;;;;;;5049020;28;20481;-83
2021/04/10 07:58:21;;;;;;;10.07;2.40;;;9.30;77.80;;;;;;5056101;28;20444;-82
2021/04/10 08:00:48;;;;;;;10.63;2.43;;;9.40;77.40;;;;;;5059163;28;20033;-83
2021/04/10 08:03:32;;;;;;;7.30;2.00;;;9.40;77.10;;;;;;5043922;28;20044;-82
2021/04/10 08:06:06;;;;;;;6.80;2.20;;;9.50;77.00;;;;;;5073270;28;20469;-83
2021/04/10 08:08:44;;;;;;;11.33;2.77;;;9.60;76.70;;;;;;5076073;28;20028;-82
2021/04/10 08:11:11;;;;;;;9.83;2.60;;;9.60;76.70;;;;;;5071172;28;20029;-83
2021/04/10 08:13:36;;;;;;;9.83;2.20;;;9.60;76.10;;;;;;5054360;28;20035;-83
2021/04/10 08:16:16;;;;;;;9.57;2.33;;;9.70;76.20;;;;;;5038613;28;20020;-83
2021/04/10 08:19:03;;;;;;;11.40;3.10;;;9.80;76.10;;;;;;5018848;28;20063;-83
2021/04/10 08:21:32;;;;;;;11.67;2.00;;;9.90;75.80;;;;;;5063242;28;20031;-84
2021/04/10 08:24:21;;;;;;;9.27;2.20;;;10.00;75.80;;;;;;5054108;28;20041;-83
2021/04/10 08:26:48;;;;;;;6.47;1.50;;;10.00;75.60;;;;;;5064276;28;20113;-84
2021/04/10 08:29:15;;;;;;;6.53;1.77;;;10.10;75.30;;;;;;5038017;28;20021;-84
2021/04/10 08:31:40;;;;;;;13.53;1.77;;;10.20;75.00;;;;;;5034769;28;20036;-84
2021/04/10 08:34:06;;;;;;;8.70;1.77;;;10.20;74.90;;;;;;5037247;28;20029;-83
2021/04/10 08:36:38;;;;;;;7.63;1.97;;;10.30;74.70;;;;;;5037810;28;20480;-83
2021/04/10 08:39:04;;;;;;;7.63;2.17;;;10.30;74.50;;;;;;5053971;28;20040;-83
2021/04/10 08:41:31;;;;;;;10.37;3.00;;;10.30;74.10;;;;;;5038028;28;20060;-84
2021/04/10 08:43:58;;;;;;;8.00;2.00;;;10.40;74.00;;;;;;5037709;28;20063;-83
2021/04/10 08:46:26;;;;;;;7.90;2.37;;;10.40;73.50;;;;;;5057709;28;20029;-83
2021/04/10 08:48:56;;;;;;;7.90;2.00;;;10.50;73.70;;;;;;5040914;28;20032;-83
2021/04/10 08:51:24;;;;;;;7.90;2.10;;;10.50;73.20;;;;;;5075641;28;20086;-82
2021/04/10 08:53:52;;;;;;;12.50;2.27;;;10.50;73.20;;;;;;5057310;28;20487;-83
2021/04/10 08:56:27;;;;;;;8.53;2.03;;;10.60;73.10;;;;;;5057195;28;20032;-82
2021/04/10 08:59:07;;;;;;;11.07;2.67;;;10.70;72.60;;;;;;5075760;28;20057;-83
2021/04/10 09:01:34;;;;;;;7.10;1.97;;;10.80;72.70;;;;;;5057398;28;20421;-83
2021/04/10 09:04:00;;;;;;;10.87;2.00;;;10.90;72.40;;;;;;5057224;28;20036;-82
2021/04/10 09:06:29;;;;;;;9.27;2.10;;;10.90;71.90;;;;;;5039418;28;20028;-84
2021/04/10 09:09:14;;;;;;;7.70;1.67;;;11.00;72.00;;;;;;5057518;28;20399;-81
2021/04/10 09:11:41;;;;;;;10.83;1.43;;;11.10;71.80;;;;;;5057006;28;20044;-84
2021/04/10 09:14:08;;;;;;;8.80;2.00;;;11.20;71.70;;;;;;5057345;28;20086;-85
2021/04/10 09:16:47;;;;;;;9.80;2.63;;;11.30;71.30;;;;;;5040242;28;20024;-85
2021/04/10 09:19:29;;;;;;;9.00;1.93;;;11.30;70.50;;;;;;5077458;28;20028;-84
2021/04/10 09:21:59;;;;;;;8.53;1.87;;;11.40;69.60;;;;;;5058426;28;20028;-85
2021/04/10 09:24:41;;;;;;;6.27;2.00;;;11.30;69.00;;;;;;5057776;28;20086;-85
2021/04/10 09:27:11;;;;;;;11.43;2.17;;;11.20;68.90;;;;;;5058934;28;20347;-85
2021/04/10 09:30:02;;;;;;;9.70;2.07;;;11.20;68.70;;;;;;5058417;28;20028;-84
2021/04/10 09:32:40;;;;;;;11.07;1.87;;;11.10;68.50;;;;;;5057007;28;20477;-85
2021/04/10 09:35:11;;;;;;;10.50;2.10;;;11.10;68.40;;;;;;5057789;28;20024;-92
2021/04/10 09:37:36;;;;;;;9.47;2.17;;;11.00;68.30;;;;;;5069075;23;20021;-80
2021/04/10 09:40:06;;;;;;;14.90;2.40;;;11.00;68.60;;;;;;5062072;28;20025;-80
2021/04/10 09:42:36;;;;;;;12.33;2.33;;;11.00;68.20;;;;;;5036825;28;20392;-79
2021/04/10 09:45:08;;;;;;;7.53;2.33;;;11.00;68.30;;;;;;5053636;28;20490;-79
2021/04/10 09:47:52;;;;;;;6.30;1.77;;;10.90;68.20;;;;;;5046033;28;20020;-79
2021/04/10 09:50:18;;;;;;;10.85;1.42;;;10.90;68.60;;;;;;5076498;28;20471;-79
2021/04/10 09:52:50;;;;;;;6.77;1.80;;;10.80;68.70;;;;;;5094895;28;20028;-80
2021/04/10 09:55:18;;;;;;;8.63;2.43;;;10.90;68.70;;;;;;5076705;28;20111;-74
2021/04/10 09:57:44;;;;;;;9.97;2.37;;;10.80;68.70;;;;;;5083438;28;20042;-74
2021/04/10 10:00:10;;;;;;;9.67;2.10;;;10.70;68.80;;;;;;5072968;28;20033;-74
2021/04/10 10:02:37;;;;;;;12.00;2.93;;;10.70;69.00;;;;;;5084762;28;20032;-74
2021/04/10 10:05:03;;;;;;;10.20;2.50;;;10.70;69.10;;;;;;5090411;28;20357;-74
2021/04/10 10:07:29;;;;;;;9.37;2.00;;;10.60;69.30;;;;;;5047191;28;20116;-74
2021/04/10 10:10:08;;;;;;;9.17;2.67;;;10.60;69.40;;;;;;5082844;28;20099;-73
2021/04/10 10:12:33;;;;;;;7.23;1.83;;;10.70;69.60;;;;;;5082589;28;20498;-73
2021/04/10 10:14:59;;;;;;;11.60;2.23;;;10.80;69.70;;;;;;5084422;28;20031;-73
2021/04/10 10:17:28;;;;;;;8.10;2.17;;;10.70;69.60;;;;;;5076721;28;20036;-78
2021/04/10 10:20:10;;;;;;;10.17;2.07;;;10.80;69.50;;;;;;5067136;28;20031;-78
2021/04/10 10:22:36;;;;;;;10.33;2.40;;;10.90;69.60;;;;;;5064260;28;20040;-79
2021/04/10 10:25:03;;;;;;;11.53;3.13;;;10.90;69.10;;;;;;5074137;28;20033;-79
2021/04/10 10:27:44;;;;;;;9.30;1.80;;;11.00;69.00;;;;;;5074431;28;20040;-79
2021/04/10 10:30:18;;;;;;;8.93;2.50;;;11.00;69.20;;;;;;5074434;28;20474;-79
2021/04/10 10:32:49;;;;;;;11.75;2.25;;;11.10;69.10;;;;;;5073959;28;20368;-78
2021/04/10 10:35:17;;;;;;;11.47;2.63;;;11.00;68.90;;;;;;5073963;28;20047;-78
2021/04/10 10:37:48;;;;;;;8.43;2.80;;;11.00;68.80;;;;;;5073973;28;20483;-78
2021/04/10 10:40:25;;;;;;;11.00;3.00;;;11.00;69.00;;;;;;5039619;28;20036;-79
2021/04/10 10:43:08;;;;;;;14.00;3.03;;;11.00;68.80;;;;;;5081357;28;20016;-78
2021/04/10 10:45:52;;;;;;;13.00;3.10;;;11.00;68.80;;;;;;5083125;28;20515;-78
2021/04/10 10:48:43;;;;;;;8.10;2.10;;;11.00;69.00;;;;;;5066107;28;20021;-80
2021/04/10 10:51:11;;;;;;;11.53;2.77;;;11.00;69.20;;;;;;5065772;28;20025;-79
2021/04/10 10:53:42;;;;;;;12.50;3.10;;;11.00;69.40;;;;;;5060894;28;20021;-78
2021/04/10 10:56:10;;;;;;;9.53;3.13;;;10.90;70.30;;;;;;5080239;28;20029;-77
2021/04/10 10:58:37;;;;;;;8.77;2.90;;;11.00;70.20;;;;;;5055725;28;20047;-79
2021/04/10 11:01:14;;;;;;;10.70;3.07;;;10.90;70.30;;;;;;5073431;28;20074;-78
2021/04/10 11:03:50;;;;;;;9.07;2.50;;;10.80;70.40;;;;;;5073314;28;20115;-78
2021/04/10 11:06:20;;;;;;;11.40;3.50;;;10.80;70.70;;;;;;5073410;28;20436;-78
2021/04/10 11:08:47;;;;;;;12.60;3.93;;;10.80;70.80;;;;;;5061313;28;20479;-78
2021/04/10 11:11:13;;;;;;;11.43;3.20;;;10.80;71.20;;;;;;5093646;28;20443;-78
2021/04/10 11:13:42;;;;;;;11.67;2.63;;;10.90;71.20;;;;;;5059120;28;20495;-78
2021/04/10 11:16:08;;;;;;;14.20;3.60;;;10.80;71.40;;;;;;5061146;28;20029;-78
2021/04/10 11:18:34;;;;;;;8.70;2.77;;;10.90;71.70;;;;;;5055292;28;20048;-78
2021/04/10 11:21:14;;;;;;;10.17;2.83;;;10.90;72.40;;;;;;5055684;28;20032;-78
2021/04/10 11:24:00;;;;;;;11.90;3.10;;;11.00;71.90;;;;;;5064732;28;20020;-79
2021/04/10 11:26:30;;;;;;;9.90;2.87;;;11.10;71.90;;;;;;5075348;28;20542;-77
2021/04/10 11:29:12;;;;;;;13.33;3.03;;;11.00;71.90;;;;;;5075358;28;20490;-78
2021/04/10 11:31:38;;;;;;;11.07;2.97;;;11.10;72.10;;;;;;5093603;28;20047;-78
2021/04/10 11:34:27;;;;;;;12.50;3.90;;;11.10;72.60;;;;;;5093401;28;20049;-78
2021/04/10 11:36:54;;;;;;;15.37;4.20;;;11.10;72.50;;;;;;5078339;28;20036;-79
2021/04/10 11:39:20;;;;;;;8.83;3.70;;;11.20;72.40;;;;;;5070353;28;20045;-79
2021/04/10 11:41:47;;;;;;;10.60;4.73;;;11.20;72.40;;;;;;5082747;28;20036;-80
2021/04/10 11:44:13;;;;;;;9.63;4.67;;;11.20;72.40;;;;;;5051712;28;20030;-72
2021/04/10 11:46:39;;;;;;;12.70;4.70;;;11.10;72.40;;;;;;5083368;28;20020;-78
2021/04/10 11:49:05;;;;;;;8.73;4.43;;;11.10;72.80;;;;;;5075096;28;20028;-78
2021/04/10 11:51:30;;;;;;;11.80;5.20;;;11.00;73.00;;;;;;5093317;28;20024;-78
2021/04/10 11:53:56;;;;;;;10.43;4.97;;;11.10;73.30;;;;;;5093122;28;20030;-77
2021/04/10 11:56:22;;;;;;;11.17;5.33;;;11.00;73.10;;;;;;5093283;28;20382;-78
2021/04/10 11:59:08;;;;;;;13.00;6.30;;;10.90;73.40;;;;;;5093144;28;20031;-80
2021/04/10 12:01:35;;;;;;;15.50;6.77;;;10.90;73.70;;;;;;5093051;28;20070;-79
2021/04/10 12:04:03;;;;;;;16.60;7.17;;;10.80;73.80;;;;;;5093017;28;20054;-80
2021/04/10 12:06:39;;;;;;;13.53;7.77;;;10.80;73.80;;;;;;5093476;28;20540;-80
2021/04/10 12:09:22;;;;;;;15.37;8.07;;;10.80;74.10;;;;;;5077612;28;20032;-80
2021/04/10 12:11:48;;;;;;;14.90;7.78;;;10.70;74.40;;;;;;5096790;28;20069;-79
2021/04/10 12:14:15;;;;;;;19.97;9.40;;;10.70;74.50;;;;;;5058207;28;20468;-79
2021/04/10 12:16:43;;;;;;;16.87;10.23;;;10.60;74.50;;;;;;5076289;28;20409;-79
2021/04/10 12:19:11;;;;;;;20.23;10.77;;;10.50;74.70;;;;;;5076293;28;20434;-79
2021/04/10 12:21:37;;;;;;;19.67;11.93;;;10.50;75.00;;;;;;5058526;28;20064;-79
2021/04/10 12:24:03;;;;;;;19.20;11.50;;;10.50;76.00;;;;;;5076410;28;20044;-79
2021/04/10 12:26:29;;;;;;;20.90;12.67;;;10.50;76.10;;;;;;5076034;28;20524;-80
2021/04/10 12:28:55;;;;;;;21.43;12.77;;;10.50;76.30;;;;;;5076056;28;20183;-79
2021/04/10 12:31:22;;;;;;;21.53;13.60;;;10.40;76.40;;;;;;5058086;28;20017;-80
2021/04/10 12:33:47;;;;;;;19.80;12.43;;;10.40;76.40;;;;;;5076094;28;20031;-80
2021/04/10 12:36:13;;;;;;;21.27;12.03;;;10.30;76.80;;;;;;5053280;28;20028;-80
2021/04/10 12:38:39;;;;;;;24.00;13.33;;;10.30;76.70;;;;;;5096061;28;20052;-80
2021/04/10 12:41:06;;;;;;;23.57;14.27;;;10.20;77.10;;;;;;5092486;28;20024;-80
2021/04/10 12:43:33;;;;;;;20.60;12.63;;;10.10;77.20;;;;;;5058573;28;20542;-80
2021/04/10 12:45:58;;;;;;;25.00;13.67;;;10.10;77.20;;;;;;5043879;28;20020;-79
2021/04/10 12:48:24;;;;;;;21.80;13.77;;;10.10;77.80;;;;;;5094526;28;20417;-80
2021/04/10 12:50:49;;;;;;;20.83;13.83;;;10.00;77.60;;;;;;5076595;28;20024;-79
2021/04/10 12:53:15;;;;;;;24.90;14.47;;;9.90;78.00;;;;;;5077842;28;20403;-79
2021/04/10 12:55:41;;;;;;;21.90;14.37;;;9.90;78.90;;;;;;5061149;28;20058;-80
2021/04/10 12:58:06;;;;;;;24.83;13.73;;;9.80;79.10;;;;;;5077789;28;20028;-81
2021/04/10 13:00:32;;;;;;;22.27;12.70;;;9.80;79.60;;;;;;5095883;28;20082;-81